sensor_id;sensor_type;location;lat;lon;timestamp;P1;durP1;ratioP1;P2;durP2;ratioP2
6205;SDS011;3136;48.788;9.772;2023-04-25T00:02:00;3.57;;;2.20;;
6205;SDS011;3136;48.788;9.772;2023-04-25T00:04:26;3.40;;;2.20;;
6205;SDS011;3136;48.788;9.772;2023-04-25T00:06:53;2.30;;;2.10;;
6205;SDS011;3136;48.788;9.772;2023-04-25T00:09:19;3.70;;;2.73;;
6205;SDS011;3136;48.788;9.772;2023-04-25T00:11:45;3.70;;;2.50;;
6205;SDS011;3136;48.788;9.772;2023-04-25T00:14:13;5.63;;;2.40;;
6205;SDS011;3136;48.788;9.772;2023-04-25T00:16:39;5.07;;;2.57;;
6205;SDS011;3136;48.788;9.772;2023-04-25T00:19:06;4.00;;;2.40;;
6205;SDS011;3136;48.788;9.772;2023-04-25T00:21:32;2.70;;;2.27;;
6205;SDS011;3136;48.788;9.772;2023-04-25T00:23:58;2.30;;;2.10;;
6205;SDS011;3136;48.788;9.772;2023-04-25T00:26:24;3.47;;;2.30;;
6205;SDS011;3136;48.788;9.772;2023-04-25T00:28:50;3.93;;;2.23;;
6205;SDS011;3136;48.788;9.772;2023-04-25T00:31:15;3.40;;;2.70;;
6205;SDS011;3136;48.788;9.772;2023-04-25T00:33:41;2.77;;;2.30;;
6205;SDS011;3136;48.788;9.772;2023-04-25T00:36:07;2.73;;;2.20;;
6205;SDS011;3136;48.788;9.772;2023-04-25T00:38:33;4.90;;;2.40;;
6205;SDS011;3136;48.788;9.772;2023-04-25T00:40:58;2.53;;;2.33;;
6205;SDS011;3136;48.788;9.772;2023-04-25T00:43:27;2.77;;;2.30;;
6205;SDS011;3136;48.788;9.772;2023-04-25T00:45:55;2.97;;;2.30;;
6205;SDS011;3136;48.788;9.772;2023-04-25T00:48:22;4.40;;;2.80;;
6205;SDS011;3136;48.788;9.772;2023-04-25T00:50:51;4.40;;;2.67;;
6205;SDS011;3136;48.788;9.772;2023-04-25T00:53:22;4.73;;;2.50;;
6205;SDS011;3136;48.788;9.772;2023-04-25T00:55:48;3.27;;;2.20;;
6205;SDS011;3136;48.788;9.772;2023-04-25T00:58:16;3.43;;;2.60;;
6205;SDS011;3136;48.788;9.772;2023-04-25T01:00:42;3.63;;;2.50;;
6205;SDS011;3136;48.788;9.772;2023-04-25T01:03:10;4.63;;;2.57;;
6205;SDS011;3136;48.788;9.772;2023-04-25T01:05:35;2.33;;;2.13;;
6205;SDS011;3136;48.788;9.772;2023-04-25T01:08:01;2.77;;;2.40;;
6205;SDS011;3136;48.788;9.772;2023-04-25T01:10:27;4.80;;;2.40;;
6205;SDS011;3136;48.788;9.772;2023-04-25T01:12:52;3.97;;;2.50;;
6205;SDS011;3136;48.788;9.772;2023-04-25T01:15:18;2.47;;;2.17;;
6205;SDS011;3136;48.788;9.772;2023-04-25T01:17:44;2.80;;;2.30;;
6205;SDS011;3136;48.788;9.772;2023-04-25T01:20:10;2.70;;;2.43;;
6205;SDS011;3136;48.788;9.772;2023-04-25T01:22:36;4.00;;;2.33;;
6205;SDS011;3136;48.788;9.772;2023-04-25T01:25:03;3.77;;;2.50;;
6205;SDS011;3136;48.788;9.772;2023-04-25T01:27:29;4.03;;;2.40;;
6205;SDS011;3136;48.788;9.772;2023-04-25T01:29:55;2.73;;;2.30;;
6205;SDS011;3136;48.788;9.772;2023-04-25T01:32:22;5.13;;;2.57;;
6205;SDS011;3136;48.788;9.772;2023-04-25T01:34:48;4.83;;;2.77;;
6205;SDS011;3136;48.788;9.772;2023-04-25T01:37:14;3.17;;;2.67;;
6205;SDS011;3136;48.788;9.772;2023-04-25T01:39:41;5.03;;;2.70;;
6205;SDS011;3136;48.788;9.772;2023-04-25T01:42:07;4.00;;;2.80;;
6205;SDS011;3136;48.788;9.772;2023-04-25T01:44:33;5.13;;;2.90;;
6205;SDS011;3136;48.788;9.772;2023-04-25T01:46:58;4.80;;;3.00;;
6205;SDS011;3136;48.788;9.772;2023-04-25T01:49:24;6.73;;;2.80;;
6205;SDS011;3136;48.788;9.772;2023-04-25T01:51:50;5.20;;;3.30;;
6205;SDS011;3136;48.788;9.772;2023-04-25T01:54:15;6.87;;;3.40;;
6205;SDS011;3136;48.788;9.772;2023-04-25T01:56:41;3.37;;;2.67;;
6205;SDS011;3136;48.788;9.772;2023-04-25T01:59:07;3.53;;;2.77;;
6205;SDS011;3136;48.788;9.772;2023-04-25T02:01:33;3.13;;;2.70;;
6205;SDS011;3136;48.788;9.772;2023-04-25T02:03:59;5.23;;;2.60;;
6205;SDS011;3136;48.788;9.772;2023-04-25T02:06:24;3.67;;;2.70;;
6205;SDS011;3136;48.788;9.772;2023-04-25T02:08:50;5.00;;;2.73;;
6205;SDS011;3136;48.788;9.772;2023-04-25T02:11:15;7.43;;;3.10;;
6205;SDS011;3136;48.788;9.772;2023-04-25T02:13:41;3.33;;;2.43;;
6205;SDS011;3136;48.788;9.772;2023-04-25T02:16:07;3.17;;;2.60;;
6205;SDS011;3136;48.788;9.772;2023-04-25T02:18:32;5.07;;;2.40;;
6205;SDS011;3136;48.788;9.772;2023-04-25T02:20:59;3.57;;;2.53;;
6205;SDS011;3136;48.788;9.772;2023-04-25T02:23:26;3.37;;;2.50;;
6205;SDS011;3136;48.788;9.772;2023-04-25T02:25:52;4.33;;;2.63;;
6205;SDS011;3136;48.788;9.772;2023-04-25T02:28:20;4.03;;;2.70;;
6205;SDS011;3136;48.788;9.772;2023-04-25T02:30:45;3.80;;;3.10;;
6205;SDS011;3136;48.788;9.772;2023-04-25T02:33:11;3.77;;;2.60;;
6205;SDS011;3136;48.788;9.772;2023-04-25T02:35:36;3.73;;;2.70;;
6205;SDS011;3136;48.788;9.772;2023-04-25T02:38:02;2.83;;;2.63;;
6205;SDS011;3136;48.788;9.772;2023-04-25T02:40:44;3.23;;;2.63;;
6205;SDS011;3136;48.788;9.772;2023-04-25T02:43:09;4.73;;;3.00;;
6205;SDS011;3136;48.788;9.772;2023-04-25T02:45:35;3.70;;;2.87;;
6205;SDS011;3136;48.788;9.772;2023-04-25T02:48:01;4.97;;;2.90;;
6205;SDS011;3136;48.788;9.772;2023-04-25T02:50:27;3.70;;;2.73;;
6205;SDS011;3136;48.788;9.772;2023-04-25T02:52:53;4.10;;;3.00;;
6205;SDS011;3136;48.788;9.772;2023-04-25T02:55:18;4.90;;;3.10;;
6205;SDS011;3136;48.788;9.772;2023-04-25T02:57:44;3.27;;;2.97;;
6205;SDS011;3136;48.788;9.772;2023-04-25T03:00:10;3.63;;;3.07;;
6205;SDS011;3136;48.788;9.772;2023-04-25T03:02:36;3.70;;;3.30;;
6205;SDS011;3136;48.788;9.772;2023-04-25T03:05:02;3.87;;;3.40;;
6205;SDS011;3136;48.788;9.772;2023-04-25T03:07:28;6.00;;;3.10;;
6205;SDS011;3136;48.788;9.772;2023-04-25T03:09:53;5.00;;;3.40;;
6205;SDS011;3136;48.788;9.772;2023-04-25T03:12:20;5.83;;;3.53;;
6205;SDS011;3136;48.788;9.772;2023-04-25T03:14:46;6.17;;;3.53;;
6205;SDS011;3136;48.788;9.772;2023-04-25T03:17:11;6.17;;;4.33;;
6205;SDS011;3136;48.788;9.772;2023-04-25T03:19:37;4.93;;;3.93;;
6205;SDS011;3136;48.788;9.772;2023-04-25T03:22:02;5.67;;;4.10;;
6205;SDS011;3136;48.788;9.772;2023-04-25T03:24:28;5.10;;;3.87;;
6205;SDS011;3136;48.788;9.772;2023-04-25T03:26:53;7.53;;;4.07;;
6205;SDS011;3136;48.788;9.772;2023-04-25T03:29:19;9.37;;;4.00;;
6205;SDS011;3136;48.788;9.772;2023-04-25T03:31:49;5.73;;;4.10;;
6205;SDS011;3136;48.788;9.772;2023-04-25T03:34:14;5.60;;;4.40;;
6205;SDS011;3136;48.788;9.772;2023-04-25T03:36:40;5.37;;;3.90;;
6205;SDS011;3136;48.788;9.772;2023-04-25T03:39:06;5.83;;;3.90;;
6205;SDS011;3136;48.788;9.772;2023-04-25T03:41:31;7.03;;;4.13;;
6205;SDS011;3136;48.788;9.772;2023-04-25T03:43:57;6.23;;;4.23;;
6205;SDS011;3136;48.788;9.772;2023-04-25T03:46:22;7.37;;;4.13;;
6205;SDS011;3136;48.788;9.772;2023-04-25T03:48:48;7.03;;;4.30;;
6205;SDS011;3136;48.788;9.772;2023-04-25T03:51:14;6.13;;;4.07;;
6205;SDS011;3136;48.788;9.772;2023-04-25T03:53:39;5.37;;;4.20;;
6205;SDS011;3136;48.788;9.772;2023-04-25T03:56:05;6.17;;;4.37;;
6205;SDS011;3136;48.788;9.772;2023-04-25T03:58:31;5.93;;;4.33;;
6205;SDS011;3136;48.788;9.772;2023-04-25T04:00:56;8.03;;;4.53;;
6205;SDS011;3136;48.788;9.772;2023-04-25T04:03:22;5.93;;;4.63;;
6205;SDS011;3136;48.788;9.772;2023-04-25T04:05:47;8.17;;;4.20;;
6205;SDS011;3136;48.788;9.772;2023-04-25T04:08:13;7.07;;;4.50;;
6205;SDS011;3136;48.788;9.772;2023-04-25T04:10:39;5.70;;;4.30;;
6205;SDS011;3136;48.788;9.772;2023-04-25T04:13:04;6.83;;;4.43;;
6205;SDS011;3136;48.788;9.772;2023-04-25T04:15:30;5.50;;;4.40;;
6205;SDS011;3136;48.788;9.772;2023-04-25T04:17:57;6.23;;;3.67;;
6205;SDS011;3136;48.788;9.772;2023-04-25T04:20:27;5.43;;;4.10;;
6205;SDS011;3136;48.788;9.772;2023-04-25T04:22:53;6.50;;;4.10;;
6205;SDS011;3136;48.788;9.772;2023-04-25T04:25:19;5.13;;;4.43;;
6205;SDS011;3136;48.788;9.772;2023-04-25T04:27:44;12.13;;;4.77;;
6205;SDS011;3136;48.788;9.772;2023-04-25T04:30:11;6.90;;;4.20;;
6205;SDS011;3136;48.788;9.772;2023-04-25T04:32:37;7.90;;;3.90;;
6205;SDS011;3136;48.788;9.772;2023-04-25T04:35:03;8.53;;;4.10;;
6205;SDS011;3136;48.788;9.772;2023-04-25T04:37:29;7.53;;;4.30;;
6205;SDS011;3136;48.788;9.772;2023-04-25T04:39:55;5.87;;;4.50;;
6205;SDS011;3136;48.788;9.772;2023-04-25T04:42:21;6.07;;;4.40;;
6205;SDS011;3136;48.788;9.772;2023-04-25T04:44:46;7.77;;;4.87;;
6205;SDS011;3136;48.788;9.772;2023-04-25T04:47:12;8.87;;;5.87;;
6205;SDS011;3136;48.788;9.772;2023-04-25T04:49:39;5.37;;;4.40;;
6205;SDS011;3136;48.788;9.772;2023-04-25T04:52:04;8.97;;;4.43;;
6205;SDS011;3136;48.788;9.772;2023-04-25T04:54:30;9.00;;;4.63;;
6205;SDS011;3136;48.788;9.772;2023-04-25T04:56:56;6.57;;;4.40;;
6205;SDS011;3136;48.788;9.772;2023-04-25T04:59:21;6.53;;;4.20;;
6205;SDS011;3136;48.788;9.772;2023-04-25T05:01:47;6.90;;;5.10;;
6205;SDS011;3136;48.788;9.772;2023-04-25T05:04:12;8.77;;;5.00;;
6205;SDS011;3136;48.788;9.772;2023-04-25T05:06:38;4.93;;;3.97;;
6205;SDS011;3136;48.788;9.772;2023-04-25T05:09:03;9.93;;;4.67;;
6205;SDS011;3136;48.788;9.772;2023-04-25T05:11:29;6.23;;;4.10;;
6205;SDS011;3136;48.788;9.772;2023-04-25T05:13:55;9.23;;;3.83;;
6205;SDS011;3136;48.788;9.772;2023-04-25T05:16:20;7.33;;;4.23;;
6205;SDS011;3136;48.788;9.772;2023-04-25T05:18:46;5.40;;;3.60;;
6205;SDS011;3136;48.788;9.772;2023-04-25T05:21:12;5.43;;;3.80;;
6205;SDS011;3136;48.788;9.772;2023-04-25T05:23:38;5.40;;;3.80;;
6205;SDS011;3136;48.788;9.772;2023-04-25T05:26:03;6.37;;;4.10;;
6205;SDS011;3136;48.788;9.772;2023-04-25T05:28:29;5.70;;;3.40;;
6205;SDS011;3136;48.788;9.772;2023-04-25T05:30:55;5.77;;;3.60;;
6205;SDS011;3136;48.788;9.772;2023-04-25T05:33:21;5.03;;;3.30;;
6205;SDS011;3136;48.788;9.772;2023-04-25T05:35:46;8.30;;;3.53;;
6205;SDS011;3136;48.788;9.772;2023-04-25T05:38:12;6.73;;;3.30;;
6205;SDS011;3136;48.788;9.772;2023-04-25T05:40:37;5.50;;;2.97;;
6205;SDS011;3136;48.788;9.772;2023-04-25T05:43:03;4.43;;;3.07;;
6205;SDS011;3136;48.788;9.772;2023-04-25T05:45:29;3.70;;;3.17;;
6205;SDS011;3136;48.788;9.772;2023-04-25T05:47:54;4.27;;;3.20;;
6205;SDS011;3136;48.788;9.772;2023-04-25T05:50:20;5.03;;;3.30;;
6205;SDS011;3136;48.788;9.772;2023-04-25T05:52:46;3.80;;;3.00;;
6205;SDS011;3136;48.788;9.772;2023-04-25T05:55:11;5.10;;;2.97;;
6205;SDS011;3136;48.788;9.772;2023-04-25T05:57:37;4.17;;;2.70;;
6205;SDS011;3136;48.788;9.772;2023-04-25T06:00:06;4.53;;;3.17;;
6205;SDS011;3136;48.788;9.772;2023-04-25T06:02:34;5.47;;;3.17;;
6205;SDS011;3136;48.788;9.772;2023-04-25T06:04:59;4.90;;;3.20;;
6205;SDS011;3136;48.788;9.772;2023-04-25T06:07:28;4.40;;;3.57;;
6205;SDS011;3136;48.788;9.772;2023-04-25T06:09:54;6.07;;;2.90;;
6205;SDS011;3136;48.788;9.772;2023-04-25T06:12:20;4.20;;;2.73;;
6205;SDS011;3136;48.788;9.772;2023-04-25T06:14:45;3.27;;;2.60;;
6205;SDS011;3136;48.788;9.772;2023-04-25T06:17:11;4.73;;;2.87;;
6205;SDS011;3136;48.788;9.772;2023-04-25T06:19:37;4.70;;;2.43;;
6205;SDS011;3136;48.788;9.772;2023-04-25T06:22:02;2.60;;;2.40;;
6205;SDS011;3136;48.788;9.772;2023-04-25T06:24:28;2.63;;;2.30;;
6205;SDS011;3136;48.788;9.772;2023-04-25T06:26:53;3.03;;;2.50;;
6205;SDS011;3136;48.788;9.772;2023-04-25T06:29:19;7.67;;;3.00;;
6205;SDS011;3136;48.788;9.772;2023-04-25T06:31:45;3.23;;;2.50;;
6205;SDS011;3136;48.788;9.772;2023-04-25T06:34:10;4.10;;;2.83;;
6205;SDS011;3136;48.788;9.772;2023-04-25T06:36:36;4.40;;;2.50;;
6205;SDS011;3136;48.788;9.772;2023-04-25T06:39:01;4.13;;;2.63;;
6205;SDS011;3136;48.788;9.772;2023-04-25T06:41:27;3.80;;;2.27;;
6205;SDS011;3136;48.788;9.772;2023-04-25T06:43:53;2.87;;;2.40;;
6205;SDS011;3136;48.788;9.772;2023-04-25T06:46:18;2.50;;;2.30;;
6205;SDS011;3136;48.788;9.772;2023-04-25T06:48:44;6.63;;;2.93;;
6205;SDS011;3136;48.788;9.772;2023-04-25T06:51:10;2.67;;;2.40;;
6205;SDS011;3136;48.788;9.772;2023-04-25T06:53:35;8.13;;;2.97;;
6205;SDS011;3136;48.788;9.772;2023-04-25T06:56:01;3.70;;;2.90;;
6205;SDS011;3136;48.788;9.772;2023-04-25T06:58:26;4.53;;;3.07;;
6205;SDS011;3136;48.788;9.772;2023-04-25T07:00:52;4.00;;;2.67;;
6205;SDS011;3136;48.788;9.772;2023-04-25T07:03:17;3.17;;;2.87;;
6205;SDS011;3136;48.788;9.772;2023-04-25T07:05:43;5.77;;;3.20;;
6205;SDS011;3136;48.788;9.772;2023-04-25T07:08:10;4.07;;;3.03;;
6205;SDS011;3136;48.788;9.772;2023-04-25T07:10:36;3.60;;;2.93;;
6205;SDS011;3136;48.788;9.772;2023-04-25T07:13:01;6.47;;;2.70;;
6205;SDS011;3136;48.788;9.772;2023-04-25T07:15:27;3.57;;;3.00;;
6205;SDS011;3136;48.788;9.772;2023-04-25T07:17:53;3.37;;;2.80;;
6205;SDS011;3136;48.788;9.772;2023-04-25T07:20:18;5.53;;;3.43;;
6205;SDS011;3136;48.788;9.772;2023-04-25T07:22:44;3.40;;;3.10;;
6205;SDS011;3136;48.788;9.772;2023-04-25T07:25:09;5.27;;;3.13;;
6205;SDS011;3136;48.788;9.772;2023-04-25T07:27:35;4.23;;;3.13;;
6205;SDS011;3136;48.788;9.772;2023-04-25T07:30:01;5.70;;;3.17;;
6205;SDS011;3136;48.788;9.772;2023-04-25T07:32:27;3.63;;;3.07;;
6205;SDS011;3136;48.788;9.772;2023-04-25T07:34:52;6.10;;;3.00;;
6205;SDS011;3136;48.788;9.772;2023-04-25T07:37:18;3.70;;;3.03;;
6205;SDS011;3136;48.788;9.772;2023-04-25T07:39:44;5.23;;;3.20;;
6205;SDS011;3136;48.788;9.772;2023-04-25T07:42:11;3.17;;;2.87;;
6205;SDS011;3136;48.788;9.772;2023-04-25T07:44:36;6.53;;;3.10;;
6205;SDS011;3136;48.788;9.772;2023-04-25T07:47:05;3.60;;;2.70;;
6205;SDS011;3136;48.788;9.772;2023-04-25T07:49:34;5.10;;;2.90;;
6205;SDS011;3136;48.788;9.772;2023-04-25T07:52:01;3.67;;;2.60;;
6205;SDS011;3136;48.788;9.772;2023-04-25T07:54:27;2.90;;;2.60;;
6205;SDS011;3136;48.788;9.772;2023-04-25T07:56:53;3.43;;;2.80;;
6205;SDS011;3136;48.788;9.772;2023-04-25T07:59:18;2.90;;;2.60;;
6205;SDS011;3136;48.788;9.772;2023-04-25T08:01:44;2.50;;;2.20;;
6205;SDS011;3136;48.788;9.772;2023-04-25T08:04:10;3.50;;;2.40;;
6205;SDS011;3136;48.788;9.772;2023-04-25T08:06:36;2.83;;;2.40;;
6205;SDS011;3136;48.788;9.772;2023-04-25T08:09:01;2.33;;;2.10;;
6205;SDS011;3136;48.788;9.772;2023-04-25T08:11:28;3.07;;;2.40;;
6205;SDS011;3136;48.788;9.772;2023-04-25T08:13:53;5.07;;;2.10;;
6205;SDS011;3136;48.788;9.772;2023-04-25T08:16:19;2.60;;;2.23;;
6205;SDS011;3136;48.788;9.772;2023-04-25T08:18:45;1.80;;;1.70;;
6205;SDS011;3136;48.788;9.772;2023-04-25T08:21:10;1.97;;;1.87;;
6205;SDS011;3136;48.788;9.772;2023-04-25T08:23:37;1.90;;;1.80;;
6205;SDS011;3136;48.788;9.772;2023-04-25T08:26:03;3.40;;;1.93;;
6205;SDS011;3136;48.788;9.772;2023-04-25T08:28:29;3.63;;;2.13;;
6205;SDS011;3136;48.788;9.772;2023-04-25T08:30:55;2.07;;;1.83;;
6205;SDS011;3136;48.788;9.772;2023-04-25T08:33:20;2.27;;;1.80;;
6205;SDS011;3136;48.788;9.772;2023-04-25T08:35:46;1.90;;;1.70;;
6205;SDS011;3136;48.788;9.772;2023-04-25T08:38:12;5.20;;;2.10;;
6205;SDS011;3136;48.788;9.772;2023-04-25T08:40:38;2.47;;;2.27;;
6205;SDS011;3136;48.788;9.772;2023-04-25T08:43:05;2.30;;;2.13;;
6205;SDS011;3136;48.788;9.772;2023-04-25T08:45:36;1.87;;;1.77;;
6205;SDS011;3136;48.788;9.772;2023-04-25T08:48:05;2.30;;;2.10;;
6205;SDS011;3136;48.788;9.772;2023-04-25T08:50:35;2.13;;;1.93;;
6205;SDS011;3136;48.788;9.772;2023-04-25T08:53:02;2.27;;;2.00;;
6205;SDS011;3136;48.788;9.772;2023-04-25T08:55:31;2.33;;;1.90;;
6205;SDS011;3136;48.788;9.772;2023-04-25T08:57:58;2.37;;;2.17;;
6205;SDS011;3136;48.788;9.772;2023-04-25T09:00:25;2.43;;;2.20;;
6205;SDS011;3136;48.788;9.772;2023-04-25T09:02:51;3.47;;;2.10;;
6205;SDS011;3136;48.788;9.772;2023-04-25T09:05:18;2.50;;;2.10;;
6205;SDS011;3136;48.788;9.772;2023-04-25T09:07:44;2.00;;;1.90;;
6205;SDS011;3136;48.788;9.772;2023-04-25T09:10:09;2.10;;;1.80;;
6205;SDS011;3136;48.788;9.772;2023-04-25T09:12:35;2.10;;;1.90;;
6205;SDS011;3136;48.788;9.772;2023-04-25T09:15:08;2.20;;;2.00;;
6205;SDS011;3136;48.788;9.772;2023-04-25T09:17:35;2.50;;;2.30;;
6205;SDS011;3136;48.788;9.772;2023-04-25T09:20:09;2.27;;;2.07;;
6205;SDS011;3136;48.788;9.772;2023-04-25T09:22:36;3.43;;;1.97;;
6205;SDS011;3136;48.788;9.772;2023-04-25T09:25:03;4.20;;;2.10;;
6205;SDS011;3136;48.788;9.772;2023-04-25T09:27:32;2.30;;;2.10;;
6205;SDS011;3136;48.788;9.772;2023-04-25T09:29:58;2.10;;;1.90;;
6205;SDS011;3136;48.788;9.772;2023-04-25T09:32:25;3.00;;;2.70;;
6205;SDS011;3136;48.788;9.772;2023-04-25T09:34:52;2.40;;;2.10;;
6205;SDS011;3136;48.788;9.772;2023-04-25T09:37:20;2.30;;;2.10;;
6205;SDS011;3136;48.788;9.772;2023-04-25T09:39:48;2.70;;;2.20;;
6205;SDS011;3136;48.788;9.772;2023-04-25T09:42:26;3.20;;;2.53;;
6205;SDS011;3136;48.788;9.772;2023-04-25T09:44:54;2.80;;;2.50;;
6205;SDS011;3136;48.788;9.772;2023-04-25T09:47:20;3.20;;;2.90;;
6205;SDS011;3136;48.788;9.772;2023-04-25T09:49:48;5.33;;;3.07;;
6205;SDS011;3136;48.788;9.772;2023-04-25T09:52:19;3.63;;;3.17;;
6205;SDS011;3136;48.788;9.772;2023-04-25T09:54:46;3.80;;;2.90;;
6205;SDS011;3136;48.788;9.772;2023-04-25T09:57:19;3.27;;;2.97;;
6205;SDS011;3136;48.788;9.772;2023-04-25T09:59:47;3.57;;;3.13;;
6205;SDS011;3136;48.788;9.772;2023-04-25T10:02:24;4.10;;;3.07;;
6205;SDS011;3136;48.788;9.772;2023-04-25T10:04:52;3.37;;;3.07;;
6205;SDS011;3136;48.788;9.772;2023-04-25T10:07:20;4.43;;;3.30;;
6205;SDS011;3136;48.788;9.772;2023-04-25T10:09:50;3.10;;;2.80;;
6205;SDS011;3136;48.788;9.772;2023-04-25T10:12:22;3.97;;;3.37;;
6205;SDS011;3136;48.788;9.772;2023-04-25T10:14:50;4.03;;;3.27;;
6205;SDS011;3136;48.788;9.772;2023-04-25T10:17:16;2.60;;;2.40;;
6205;SDS011;3136;48.788;9.772;2023-04-25T10:19:44;2.90;;;2.57;;
6205;SDS011;3136;48.788;9.772;2023-04-25T10:22:44;4.33;;;3.03;;
6205;SDS011;3136;48.788;9.772;2023-04-25T10:25:09;3.30;;;3.00;;
6205;SDS011;3136;48.788;9.772;2023-04-25T10:27:36;3.27;;;2.97;;
6205;SDS011;3136;48.788;9.772;2023-04-25T10:30:35;3.00;;;2.70;;
6205;SDS011;3136;48.788;9.772;2023-04-25T10:32:55;3.03;;;2.77;;
6205;SDS011;3136;48.788;9.772;2023-04-25T10:35:25;3.23;;;2.40;;
6205;SDS011;3136;48.788;9.772;2023-04-25T10:38:10;3.00;;;2.30;;
6205;SDS011;3136;48.788;9.772;2023-04-25T10:40:38;2.40;;;2.20;;
6205;SDS011;3136;48.788;9.772;2023-04-25T10:46:00;3.00;;;2.50;;
6205;SDS011;3136;48.788;9.772;2023-04-25T10:48:26;3.20;;;2.90;;
6205;SDS011;3136;48.788;9.772;2023-04-25T10:51:11;3.30;;;2.93;;
6205;SDS011;3136;48.788;9.772;2023-04-25T10:53:43;3.30;;;2.83;;
6205;SDS011;3136;48.788;9.772;2023-04-25T10:56:19;3.33;;;3.03;;
6205;SDS011;3136;48.788;9.772;2023-04-25T10:58:49;3.40;;;3.10;;
6205;SDS011;3136;48.788;9.772;2023-04-25T11:01:15;3.70;;;3.23;;
6205;SDS011;3136;48.788;9.772;2023-04-25T11:03:45;4.80;;;3.80;;
6205;SDS011;3136;48.788;9.772;2023-04-25T11:09:16;6.63;;;4.07;;
6205;SDS011;3136;48.788;9.772;2023-04-25T11:11:41;7.83;;;5.00;;
6205;SDS011;3136;48.788;9.772;2023-04-25T11:14:07;5.20;;;4.30;;
6205;SDS011;3136;48.788;9.772;2023-04-25T11:16:33;6.33;;;4.77;;
6205;SDS011;3136;48.788;9.772;2023-04-25T11:18:58;6.03;;;4.67;;
6205;SDS011;3136;48.788;9.772;2023-04-25T11:21:27;6.07;;;5.03;;
6205;SDS011;3136;48.788;9.772;2023-04-25T11:23:54;6.53;;;5.20;;
6205;SDS011;3136;48.788;9.772;2023-04-25T11:26:24;4.27;;;3.83;;
6205;SDS011;3136;48.788;9.772;2023-04-25T11:28:50;5.63;;;4.10;;
6205;SDS011;3136;48.788;9.772;2023-04-25T11:31:18;5.00;;;4.20;;
6205;SDS011;3136;48.788;9.772;2023-04-25T11:33:46;4.67;;;4.27;;
6205;SDS011;3136;48.788;9.772;2023-04-25T11:36:12;6.80;;;4.60;;
6205;SDS011;3136;48.788;9.772;2023-04-25T11:38:40;5.20;;;4.37;;
6205;SDS011;3136;48.788;9.772;2023-04-25T11:41:06;6.00;;;4.57;;
6205;SDS011;3136;48.788;9.772;2023-04-25T11:43:32;7.20;;;4.73;;
6205;SDS011;3136;48.788;9.772;2023-04-25T11:45:57;5.00;;;4.17;;
6205;SDS011;3136;48.788;9.772;2023-04-25T11:48:23;8.97;;;4.80;;
6205;SDS011;3136;48.788;9.772;2023-04-25T11:50:49;5.87;;;4.50;;
6205;SDS011;3136;48.788;9.772;2023-04-25T11:53:14;6.73;;;3.93;;
6205;SDS011;3136;48.788;9.772;2023-04-25T11:55:42;14.80;;;4.80;;
6205;SDS011;3136;48.788;9.772;2023-04-25T11:58:08;6.23;;;4.57;;
6205;SDS011;3136;48.788;9.772;2023-04-25T12:00:35;7.03;;;4.30;;
6205;SDS011;3136;48.788;9.772;2023-04-25T12:03:01;7.20;;;4.00;;
6205;SDS011;3136;48.788;9.772;2023-04-25T12:05:28;6.23;;;4.80;;
6205;SDS011;3136;48.788;9.772;2023-04-25T12:07:55;4.53;;;3.70;;
6205;SDS011;3136;48.788;9.772;2023-04-25T12:10:21;4.60;;;4.10;;
6205;SDS011;3136;48.788;9.772;2023-04-25T12:12:49;6.27;;;3.90;;
6205;SDS011;3136;48.788;9.772;2023-04-25T12:15:16;5.10;;;3.97;;
6205;SDS011;3136;48.788;9.772;2023-04-25T12:17:47;4.60;;;4.03;;
6205;SDS011;3136;48.788;9.772;2023-04-25T12:20:16;4.77;;;4.20;;
6205;SDS011;3136;48.788;9.772;2023-04-25T12:22:46;5.30;;;4.10;;
6205;SDS011;3136;48.788;9.772;2023-04-25T12:25:13;4.90;;;4.10;;
6205;SDS011;3136;48.788;9.772;2023-04-25T12:33:25;3.63;;;3.33;;
6205;SDS011;3136;48.788;9.772;2023-04-25T12:35:52;7.17;;;3.50;;
6205;SDS011;3136;48.788;9.772;2023-04-25T12:38:25;3.70;;;3.37;;
6205;SDS011;3136;48.788;9.772;2023-04-25T12:40:55;3.73;;;3.30;;
6205;SDS011;3136;48.788;9.772;2023-04-25T12:43:21;5.30;;;3.50;;
6205;SDS011;3136;48.788;9.772;2023-04-25T12:45:47;5.20;;;3.77;;
6205;SDS011;3136;48.788;9.772;2023-04-25T12:48:14;5.67;;;4.00;;
6205;SDS011;3136;48.788;9.772;2023-04-25T12:50:39;5.37;;;4.50;;
6205;SDS011;3136;48.788;9.772;2023-04-25T12:53:06;5.80;;;3.77;;
6205;SDS011;3136;48.788;9.772;2023-04-25T12:55:31;4.50;;;4.03;;
6205;SDS011;3136;48.788;9.772;2023-04-25T12:57:57;5.60;;;4.10;;
6205;SDS011;3136;48.788;9.772;2023-04-25T13:00:22;5.83;;;4.37;;
6205;SDS011;3136;48.788;9.772;2023-04-25T13:02:48;5.37;;;3.70;;
6205;SDS011;3136;48.788;9.772;2023-04-25T13:05:14;4.70;;;3.40;;
6205;SDS011;3136;48.788;9.772;2023-04-25T13:07:40;3.70;;;3.13;;
6205;SDS011;3136;48.788;9.772;2023-04-25T13:10:06;4.33;;;2.30;;
6205;SDS011;3136;48.788;9.772;2023-04-25T13:12:32;3.13;;;2.80;;
6205;SDS011;3136;48.788;9.772;2023-04-25T13:14:58;6.33;;;3.00;;
6205;SDS011;3136;48.788;9.772;2023-04-25T13:17:23;4.73;;;2.93;;
6205;SDS011;3136;48.788;9.772;2023-04-25T13:19:49;4.43;;;3.17;;
6205;SDS011;3136;48.788;9.772;2023-04-25T13:22:15;3.73;;;3.13;;
6205;SDS011;3136;48.788;9.772;2023-04-25T13:24:42;5.23;;;3.30;;
6205;SDS011;3136;48.788;9.772;2023-04-25T13:27:07;3.87;;;3.27;;
6205;SDS011;3136;48.788;9.772;2023-04-25T13:29:33;4.50;;;3.53;;
6205;SDS011;3136;48.788;9.772;2023-04-25T13:32:00;4.87;;;3.40;;
6205;SDS011;3136;48.788;9.772;2023-04-25T13:34:26;4.57;;;3.70;;
6205;SDS011;3136;48.788;9.772;2023-04-25T13:36:53;8.63;;;4.20;;
6205;SDS011;3136;48.788;9.772;2023-04-25T13:39:18;6.17;;;3.80;;
6205;SDS011;3136;48.788;9.772;2023-04-25T13:41:44;5.90;;;3.57;;
6205;SDS011;3136;48.788;9.772;2023-04-25T13:44:10;5.83;;;4.00;;
6205;SDS011;3136;48.788;9.772;2023-04-25T13:46:35;6.30;;;4.07;;
6205;SDS011;3136;48.788;9.772;2023-04-25T13:49:02;5.83;;;3.90;;
6205;SDS011;3136;48.788;9.772;2023-04-25T13:51:30;4.03;;;3.57;;
6205;SDS011;3136;48.788;9.772;2023-04-25T13:53:56;4.17;;;3.77;;
6205;SDS011;3136;48.788;9.772;2023-04-25T13:56:22;5.20;;;3.27;;
6205;SDS011;3136;48.788;9.772;2023-04-25T13:58:48;5.83;;;3.57;;
6205;SDS011;3136;48.788;9.772;2023-04-25T14:01:15;3.70;;;3.40;;
6205;SDS011;3136;48.788;9.772;2023-04-25T14:03:41;4.63;;;3.20;;
6205;SDS011;3136;48.788;9.772;2023-04-25T14:06:07;4.37;;;2.97;;
6205;SDS011;3136;48.788;9.772;2023-04-25T14:08:33;3.27;;;2.93;;
6205;SDS011;3136;48.788;9.772;2023-04-25T14:10:59;5.40;;;3.10;;
6205;SDS011;3136;48.788;9.772;2023-04-25T14:13:25;4.57;;;3.17;;
6205;SDS011;3136;48.788;9.772;2023-04-25T14:15:51;4.87;;;3.37;;
6205;SDS011;3136;48.788;9.772;2023-04-25T14:18:16;3.37;;;2.93;;
6205;SDS011;3136;48.788;9.772;2023-04-25T14:20:42;4.57;;;3.27;;
6205;SDS011;3136;48.788;9.772;2023-04-25T14:23:08;4.53;;;3.23;;
6205;SDS011;3136;48.788;9.772;2023-04-25T14:25:33;4.00;;;3.60;;
6205;SDS011;3136;48.788;9.772;2023-04-25T14:28:01;6.57;;;3.77;;
6205;SDS011;3136;48.788;9.772;2023-04-25T14:30:26;4.73;;;4.13;;
6205;SDS011;3136;48.788;9.772;2023-04-25T14:32:52;5.17;;;4.00;;
6205;SDS011;3136;48.788;9.772;2023-04-25T14:35:17;8.47;;;4.47;;
6205;SDS011;3136;48.788;9.772;2023-04-25T14:37:43;5.87;;;4.10;;
6205;SDS011;3136;48.788;9.772;2023-04-25T14:40:09;4.40;;;3.60;;
6205;SDS011;3136;48.788;9.772;2023-04-25T14:42:36;6.67;;;4.30;;
6205;SDS011;3136;48.788;9.772;2023-04-25T14:45:02;4.50;;;3.70;;
6205;SDS011;3136;48.788;9.772;2023-04-25T14:47:29;6.47;;;4.10;;
6205;SDS011;3136;48.788;9.772;2023-04-25T14:49:54;5.73;;;3.97;;
6205;SDS011;3136;48.788;9.772;2023-04-25T14:52:21;4.17;;;3.60;;
6205;SDS011;3136;48.788;9.772;2023-04-25T14:54:46;5.70;;;3.57;;
6205;SDS011;3136;48.788;9.772;2023-04-25T14:57:12;4.03;;;3.37;;
6205;SDS011;3136;48.788;9.772;2023-04-25T14:59:38;5.07;;;3.80;;
6205;SDS011;3136;48.788;9.772;2023-04-25T15:02:03;6.13;;;3.80;;
6205;SDS011;3136;48.788;9.772;2023-04-25T15:04:29;5.63;;;3.80;;
6205;SDS011;3136;48.788;9.772;2023-04-25T15:06:55;10.17;;;4.13;;
6205;SDS011;3136;48.788;9.772;2023-04-25T15:09:20;5.50;;;4.03;;
6205;SDS011;3136;48.788;9.772;2023-04-25T15:11:48;6.47;;;4.17;;
6205;SDS011;3136;48.788;9.772;2023-04-25T15:14:13;4.30;;;3.90;;
6205;SDS011;3136;48.788;9.772;2023-04-25T15:16:39;6.47;;;4.83;;
6205;SDS011;3136;48.788;9.772;2023-04-25T15:19:04;6.33;;;4.60;;
6205;SDS011;3136;48.788;9.772;2023-04-25T15:21:30;5.77;;;4.43;;
6205;SDS011;3136;48.788;9.772;2023-04-25T15:23:57;4.77;;;4.20;;